sensor_id;sensor_type;location;lat;lon;timestamp;temperature;humidity
76509;SHT31;65340;51.966;5.652;2023-02-27T00:00:40;15.0;40.9
76509;SHT31;65340;51.966;5.652;2023-02-27T00:03:09;14.9;40.9
76509;SHT31;65340;51.966;5.652;2023-02-27T00:05:39;14.9;41.0
76509;SHT31;65340;51.966;5.652;2023-02-27T00:08:09;14.9;41.0
76509;SHT31;65340;51.966;5.652;2023-02-27T00:10:41;14.9;40.9
76509;SHT31;65340;51.966;5.652;2023-02-27T00:13:10;14.9;41.0
76509;SHT31;65340;51.966;5.652;2023-02-27T00:15:40;14.9;40.9
76509;SHT31;65340;51.966;5.652;2023-02-27T00:18:10;14.9;40.8
76509;SHT31;65340;51.966;5.652;2023-02-27T00:20:40;14.9;40.9
76509;SHT31;65340;51.966;5.652;2023-02-27T00:23:10;14.8;40.9
76509;SHT31;65340;51.966;5.652;2023-02-27T00:25:44;14.8;40.8
76509;SHT31;65340;51.966;5.652;2023-02-27T00:28:15;14.8;40.8
76509;SHT31;65340;51.966;5.652;2023-02-27T00:30:45;14.8;40.7
76509;SHT31;65340;51.966;5.652;2023-02-27T00:33:15;14.8;40.6
76509;SHT31;65340;51.966;5.652;2023-02-27T00:35:58;14.8;40.7
76509;SHT31;65340;51.966;5.652;2023-02-27T00:38:28;14.8;40.7
76509;SHT31;65340;51.966;5.652;2023-02-27T00:40:58;14.8;40.7
76509;SHT31;65340;51.966;5.652;2023-02-27T00:43:29;14.8;40.7
76509;SHT31;65340;51.966;5.652;2023-02-27T00:45:59;14.7;40.6
76509;SHT31;65340;51.966;5.652;2023-02-27T00:48:28;14.7;40.7
76509;SHT31;65340;51.966;5.652;2023-02-27T00:50:58;14.7;40.6
76509;SHT31;65340;51.966;5.652;2023-02-27T00:53:28;14.7;40.6
76509;SHT31;65340;51.966;5.652;2023-02-27T00:55:59;14.7;40.7
76509;SHT31;65340;51.966;5.652;2023-02-27T00:58:30;14.7;40.6
76509;SHT31;65340;51.966;5.652;2023-02-27T01:01:00;14.7;40.6
76509;SHT31;65340;51.966;5.652;2023-02-27T01:03:30;14.7;40.6
76509;SHT31;65340;51.966;5.652;2023-02-27T01:06:00;14.7;40.6
76509;SHT31;65340;51.966;5.652;2023-02-27T01:08:31;14.7;40.7
76509;SHT31;65340;51.966;5.652;2023-02-27T01:11:01;14.7;40.6
76509;SHT31;65340;51.966;5.652;2023-02-27T01:13:30;14.7;40.5
76509;SHT31;65340;51.966;5.652;2023-02-27T01:16:00;14.7;40.6
76509;SHT31;65340;51.966;5.652;2023-02-27T01:18:30;14.7;40.5
76509;SHT31;65340;51.966;5.652;2023-02-27T01:21:00;14.6;40.6
76509;SHT31;65340;51.966;5.652;2023-02-27T01:23:30;14.6;40.6
76509;SHT31;65340;51.966;5.652;2023-02-27T01:26:00;14.6;40.5
76509;SHT31;65340;51.966;5.652;2023-02-27T01:28:30;14.6;40.5
76509;SHT31;65340;51.966;5.652;2023-02-27T01:31:00;14.6;40.5
76509;SHT31;65340;51.966;5.652;2023-02-27T01:33:31;14.6;40.5
76509;SHT31;65340;51.966;5.652;2023-02-27T01:36:01;14.6;40.6
76509;SHT31;65340;51.966;5.652;2023-02-27T01:38:31;14.6;40.7
76509;SHT31;65340;51.966;5.652;2023-02-27T01:41:01;14.6;40.7
76509;SHT31;65340;51.966;5.652;2023-02-27T01:43:33;14.6;40.6
76509;SHT31;65340;51.966;5.652;2023-02-27T01:46:03;14.6;40.7
76509;SHT31;65340;51.966;5.652;2023-02-27T01:48:34;14.6;40.7
76509;SHT31;65340;51.966;5.652;2023-02-27T01:51:12;14.6;40.7
76509;SHT31;65340;51.966;5.652;2023-02-27T01:53:44;14.6;40.6
76509;SHT31;65340;51.966;5.652;2023-02-27T01:56:18;14.6;40.6
76509;SHT31;65340;51.966;5.652;2023-02-27T01:58:51;14.6;40.6
76509;SHT31;65340;51.966;5.652;2023-02-27T02:01:24;14.5;40.5
76509;SHT31;65340;51.966;5.652;2023-02-27T02:04:01;14.5;40.5
76509;SHT31;65340;51.966;5.652;2023-02-27T02:06:37;14.5;40.5
76509;SHT31;65340;51.966;5.652;2023-02-27T02:09:09;14.5;40.5
76509;SHT31;65340;51.966;5.652;2023-02-27T02:11:42;14.5;40.5
76509;SHT31;65340;51.966;5.652;2023-02-27T02:14:12;14.5;40.5
76509;SHT31;65340;51.966;5.652;2023-02-27T02:17:01;14.5;40.5
76509;SHT31;65340;51.966;5.652;2023-02-27T02:20:53;14.5;40.5
76509;SHT31;65340;51.966;5.652;2023-02-27T02:28:36;14.5;40.5
76509;SHT31;65340;51.966;5.652;2023-02-27T02:31:40;14.5;40.4
76509;SHT31;65340;51.966;5.652;2023-02-27T02:35:58;14.5;40.4
76509;SHT31;65340;51.966;5.652;2023-02-27T02:43:07;14.4;40.5
76509;SHT31;65340;51.966;5.652;2023-02-27T02:45:46;14.4;40.4
76509;SHT31;65340;51.966;5.652;2023-02-27T02:48:24;14.4;40.5
76509;SHT31;65340;51.966;5.652;2023-02-27T02:51:01;14.4;40.5
76509;SHT31;65340;51.966;5.652;2023-02-27T02:53:40;14.4;40.5
76509;SHT31;65340;51.966;5.652;2023-02-27T02:56:17;14.4;40.5
76509;SHT31;65340;51.966;5.652;2023-02-27T02:58:56;14.4;40.5
76509;SHT31;65340;51.966;5.652;2023-02-27T03:01:33;14.4;40.5
76509;SHT31;65340;51.966;5.652;2023-02-27T03:04:11;14.4;40.6
76509;SHT31;65340;51.966;5.652;2023-02-27T03:06:49;14.4;40.6
76509;SHT31;65340;51.966;5.652;2023-02-27T03:09:25;14.4;40.6
76509;SHT31;65340;51.966;5.652;2023-02-27T03:11:58;14.4;40.7
76509;SHT31;65340;51.966;5.652;2023-02-27T03:14:37;14.4;40.6
76509;SHT31;65340;51.966;5.652;2023-02-27T03:17:16;14.4;40.6
76509;SHT31;65340;51.966;5.652;2023-02-27T03:19:52;14.4;40.6
76509;SHT31;65340;51.966;5.652;2023-02-27T03:22:28;14.4;40.6
76509;SHT31;65340;51.966;5.652;2023-02-27T03:25:03;14.4;40.7
76509;SHT31;65340;51.966;5.652;2023-02-27T03:27:39;14.3;40.8
76509;SHT31;65340;51.966;5.652;2023-02-27T03:30:16;14.3;40.7
76509;SHT31;65340;51.966;5.652;2023-02-27T03:32:56;14.3;40.7
76509;SHT31;65340;51.966;5.652;2023-02-27T03:35:33;14.3;40.7
76509;SHT31;65340;51.966;5.652;2023-02-27T03:38:13;14.3;40.8
76509;SHT31;65340;51.966;5.652;2023-02-27T03:40:51;14.3;40.7
76509;SHT31;65340;51.966;5.652;2023-02-27T03:43:27;14.3;40.7
76509;SHT31;65340;51.966;5.652;2023-02-27T03:46:06;14.3;40.7
76509;SHT31;65340;51.966;5.652;2023-02-27T03:48:38;14.3;40.7
76509;SHT31;65340;51.966;5.652;2023-02-27T03:51:12;14.3;40.8
76509;SHT31;65340;51.966;5.652;2023-02-27T03:53:46;14.3;40.8
76509;SHT31;65340;51.966;5.652;2023-02-27T03:56:22;14.3;40.7
76509;SHT31;65340;51.966;5.652;2023-02-27T03:58:53;14.3;40.8
76509;SHT31;65340;51.966;5.652;2023-02-27T04:01:24;14.3;40.8
76509;SHT31;65340;51.966;5.652;2023-02-27T04:04:04;14.3;40.8
76509;SHT31;65340;51.966;5.652;2023-02-27T04:06:37;14.3;40.7
76509;SHT31;65340;51.966;5.652;2023-02-27T04:09:33;14.3;40.8
76509;SHT31;65340;51.966;5.652;2023-02-27T04:12:23;14.3;40.7
76509;SHT31;65340;51.966;5.652;2023-02-27T04:15:06;14.3;40.7
76509;SHT31;65340;51.966;5.652;2023-02-27T04:17:48;14.2;40.7
76509;SHT31;65340;51.966;5.652;2023-02-27T04:20:34;14.2;40.7
76509;SHT31;65340;51.966;5.652;2023-02-27T04:23:14;14.2;40.7
76509;SHT31;65340;51.966;5.652;2023-02-27T04:25:56;14.2;40.7
76509;SHT31;65340;51.966;5.652;2023-02-27T04:28:37;14.2;40.6
76509;SHT31;65340;51.966;5.652;2023-02-27T04:31:15;14.2;40.7
76509;SHT31;65340;51.966;5.652;2023-02-27T04:33:50;14.2;40.7
76509;SHT31;65340;51.966;5.652;2023-02-27T04:36:30;14.2;40.7
76509;SHT31;65340;51.966;5.652;2023-02-27T04:39:05;14.2;40.6
76509;SHT31;65340;51.966;5.652;2023-02-27T04:41:42;14.2;40.6
76509;SHT31;65340;51.966;5.652;2023-02-27T04:44:15;14.2;40.7
76509;SHT31;65340;51.966;5.652;2023-02-27T04:46:47;14.2;40.8
76509;SHT31;65340;51.966;5.652;2023-02-27T04:49:23;14.2;40.7
76509;SHT31;65340;51.966;5.652;2023-02-27T04:52:00;14.2;40.8
76509;SHT31;65340;51.966;5.652;2023-02-27T04:54:34;14.2;40.8
76509;SHT31;65340;51.966;5.652;2023-02-27T04:57:10;14.2;40.8
76509;SHT31;65340;51.966;5.652;2023-02-27T04:59:45;14.2;40.8
76509;SHT31;65340;51.966;5.652;2023-02-27T05:02:19;14.1;40.8
76509;SHT31;65340;51.966;5.652;2023-02-27T05:04:55;14.1;40.8
76509;SHT31;65340;51.966;5.652;2023-02-27T05:07:31;14.1;40.9
76509;SHT31;65340;51.966;5.652;2023-02-27T05:10:05;14.1;40.8
76509;SHT31;65340;51.966;5.652;2023-02-27T05:12:43;14.1;40.9
76509;SHT31;65340;51.966;5.652;2023-02-27T05:15:19;14.1;40.9
76509;SHT31;65340;51.966;5.652;2023-02-27T05:17:58;14.1;40.8
76509;SHT31;65340;51.966;5.652;2023-02-27T05:20:38;14.1;40.8
76509;SHT31;65340;51.966;5.652;2023-02-27T05:23:15;14.1;40.7
76509;SHT31;65340;51.966;5.652;2023-02-27T05:25:51;14.1;40.8
76509;SHT31;65340;51.966;5.652;2023-02-27T05:28:29;14.1;40.7
76509;SHT31;65340;51.966;5.652;2023-02-27T05:31:08;14.1;40.8
76509;SHT31;65340;51.966;5.652;2023-02-27T05:33:50;14.1;40.7
76509;SHT31;65340;51.966;5.652;2023-02-27T05:36:27;14.1;40.7
76509;SHT31;65340;51.966;5.652;2023-02-27T05:39:03;14.1;40.8
76509;SHT31;65340;51.966;5.652;2023-02-27T05:41:38;14.1;40.7
76509;SHT31;65340;51.966;5.652;2023-02-27T05:44:15;14.1;40.7
76509;SHT31;65340;51.966;5.652;2023-02-27T05:46:52;14.1;40.7
76509;SHT31;65340;51.966;5.652;2023-02-27T05:49:27;14.1;40.7
76509;SHT31;65340;51.966;5.652;2023-02-27T05:52:01;14.1;40.8
76509;SHT31;65340;51.966;5.652;2023-02-27T05:54:38;14.1;40.7
76509;SHT31;65340;51.966;5.652;2023-02-27T05:57:15;14.1;40.7
76509;SHT31;65340;51.966;5.652;2023-02-27T05:59:53;14.0;40.7
76509;SHT31;65340;51.966;5.652;2023-02-27T06:02:23;14.0;40.8
76509;SHT31;65340;51.966;5.652;2023-02-27T06:04:54;14.0;40.7
76509;SHT31;65340;51.966;5.652;2023-02-27T06:07:25;14.0;40.5
76509;SHT31;65340;51.966;5.652;2023-02-27T06:09:59;14.0;40.6
76509;SHT31;65340;51.966;5.652;2023-02-27T06:12:29;14.0;40.5
76509;SHT31;65340;51.966;5.652;2023-02-27T06:14:58;14.0;40.6
76509;SHT31;65340;51.966;5.652;2023-02-27T06:17:28;14.0;40.7
76509;SHT31;65340;51.966;5.652;2023-02-27T06:19:57;14.0;40.5
76509;SHT31;65340;51.966;5.652;2023-02-27T06:22:28;14.0;40.7
76509;SHT31;65340;51.966;5.652;2023-02-27T06:24:59;14.0;40.8
76509;SHT31;65340;51.966;5.652;2023-02-27T06:27:28;14.0;40.6
76509;SHT31;65340;51.966;5.652;2023-02-27T06:29:58;14.0;40.6
76509;SHT31;65340;51.966;5.652;2023-02-27T06:32:28;14.0;40.7
76509;SHT31;65340;51.966;5.652;2023-02-27T06:34:57;14.0;40.7
76509;SHT31;65340;51.966;5.652;2023-02-27T06:37:27;14.0;40.6
76509;SHT31;65340;51.966;5.652;2023-02-27T06:39:57;14.0;40.5
76509;SHT31;65340;51.966;5.652;2023-02-27T06:42:26;14.0;40.5
76509;SHT31;65340;51.966;5.652;2023-02-27T06:44:56;14.0;40.6
76509;SHT31;65340;51.966;5.652;2023-02-27T06:47:26;14.0;40.5
76509;SHT31;65340;51.966;5.652;2023-02-27T06:49:56;14.0;40.4
76509;SHT31;65340;51.966;5.652;2023-02-27T06:52:26;14.0;40.5
76509;SHT31;65340;51.966;5.652;2023-02-27T06:54:56;14.0;40.5
76509;SHT31;65340;51.966;5.652;2023-02-27T06:57:26;14.0;40.4
76509;SHT31;65340;51.966;5.652;2023-02-27T06:59:56;14.0;40.4
76509;SHT31;65340;51.966;5.652;2023-02-27T07:02:26;14.0;40.4
76509;SHT31;65340;51.966;5.652;2023-02-27T07:04:57;14.0;40.4
76509;SHT31;65340;51.966;5.652;2023-02-27T07:07:27;14.0;40.4
76509;SHT31;65340;51.966;5.652;2023-02-27T07:09:57;14.0;40.4
76509;SHT31;65340;51.966;5.652;2023-02-27T07:12:26;14.1;40.4
76509;SHT31;65340;51.966;5.652;2023-02-27T07:14:56;14.1;40.3
76509;SHT31;65340;51.966;5.652;2023-02-27T07:17:26;14.1;40.3
76509;SHT31;65340;51.966;5.652;2023-02-27T07:19:58;14.1;40.2
76509;SHT31;65340;51.966;5.652;2023-02-27T07:22:30;14.1;40.3
76509;SHT31;65340;51.966;5.652;2023-02-27T07:25:00;14.1;40.2
76509;SHT31;65340;51.966;5.652;2023-02-27T07:27:30;14.1;40.3
76509;SHT31;65340;51.966;5.652;2023-02-27T07:30:00;14.1;40.3
76509;SHT31;65340;51.966;5.652;2023-02-27T07:32:29;14.1;40.2
76509;SHT31;65340;51.966;5.652;2023-02-27T07:34:59;14.1;40.2
76509;SHT31;65340;51.966;5.652;2023-02-27T07:37:30;14.2;40.1
76509;SHT31;65340;51.966;5.652;2023-02-27T07:39:59;14.2;40.0
76509;SHT31;65340;51.966;5.652;2023-02-27T07:42:30;14.2;40.0
76509;SHT31;65340;51.966;5.652;2023-02-27T07:45:00;14.2;40.0
76509;SHT31;65340;51.966;5.652;2023-02-27T07:47:32;14.2;40.0
76509;SHT31;65340;51.966;5.652;2023-02-27T07:50:02;14.3;40.0
76509;SHT31;65340;51.966;5.652;2023-02-27T07:52:32;14.3;39.9
76509;SHT31;65340;51.966;5.652;2023-02-27T07:55:02;14.3;39.9
76509;SHT31;65340;51.966;5.652;2023-02-27T07:57:31;14.3;39.9
76509;SHT31;65340;51.966;5.652;2023-02-27T08:00:02;14.3;39.8
76509;SHT31;65340;51.966;5.652;2023-02-27T08:02:33;14.3;39.8
76509;SHT31;65340;51.966;5.652;2023-02-27T08:05:03;14.4;39.7
76509;SHT31;65340;51.966;5.652;2023-02-27T08:07:33;14.4;39.7
76509;SHT31;65340;51.966;5.652;2023-02-27T08:10:03;14.4;39.7
76509;SHT31;65340;51.966;5.652;2023-02-27T08:12:33;14.4;39.5
76509;SHT31;65340;51.966;5.652;2023-02-27T08:15:03;14.4;39.6
76509;SHT31;65340;51.966;5.652;2023-02-27T08:17:33;14.4;39.5
76509;SHT31;65340;51.966;5.652;2023-02-27T08:20:03;14.4;39.5
76509;SHT31;65340;51.966;5.652;2023-02-27T08:22:33;14.4;39.5
76509;SHT31;65340;51.966;5.652;2023-02-27T08:25:03;14.4;39.4
76509;SHT31;65340;51.966;5.652;2023-02-27T08:27:34;14.4;39.4
76509;SHT31;65340;51.966;5.652;2023-02-27T08:30:06;14.4;39.4
76509;SHT31;65340;51.966;5.652;2023-02-27T08:32:38;14.4;39.4
76509;SHT31;65340;51.966;5.652;2023-02-27T08:35:08;14.4;39.5
76509;SHT31;65340;51.966;5.652;2023-02-27T08:37:38;14.4;39.5
76509;SHT31;65340;51.966;5.652;2023-02-27T08:40:08;14.4;40.5
76509;SHT31;65340;51.966;5.652;2023-02-27T08:42:39;14.4;40.1
76509;SHT31;65340;51.966;5.652;2023-02-27T08:45:09;14.5;40.2
76509;SHT31;65340;51.966;5.652;2023-02-27T08:47:39;14.5;41.1
76509;SHT31;65340;51.966;5.652;2023-02-27T08:50:12;14.5;42.2
76509;SHT31;65340;51.966;5.652;2023-02-27T08:52:42;14.5;41.0
76509;SHT31;65340;51.966;5.652;2023-02-27T08:55:13;14.5;40.8
76509;SHT31;65340;51.966;5.652;2023-02-27T08:57:43;14.5;40.7
76509;SHT31;65340;51.966;5.652;2023-02-27T09:00:14;14.5;43.8
76509;SHT31;65340;51.966;5.652;2023-02-27T09:02:44;14.5;41.6
76509;SHT31;65340;51.966;5.652;2023-02-27T09:05:13;14.6;43.5
76509;SHT31;65340;51.966;5.652;2023-02-27T09:07:44;14.6;40.8
76509;SHT31;65340;51.966;5.652;2023-02-27T09:10:14;14.6;41.0
76509;SHT31;65340;51.966;5.652;2023-02-27T09:12:44;14.6;40.6
76509;SHT31;65340;51.966;5.652;2023-02-27T09:15:15;14.6;40.4
76509;SHT31;65340;51.966;5.652;2023-02-27T09:17:47;14.6;40.5
76509;SHT31;65340;51.966;5.652;2023-02-27T09:20:17;14.6;40.1
76509;SHT31;65340;51.966;5.652;2023-02-27T09:22:47;14.6;40.1
76509;SHT31;65340;51.966;5.652;2023-02-27T09:25:17;14.7;40.2
76509;SHT31;65340;51.966;5.652;2023-02-27T09:27:46;14.7;40.7
76509;SHT31;65340;51.966;5.652;2023-02-27T09:30:19;14.7;40.5
76509;SHT31;65340;51.966;5.652;2023-02-27T09:32:49;14.7;41.6
76509;SHT31;65340;51.966;5.652;2023-02-27T09:35:19;14.7;40.8
76509;SHT31;65340;51.966;5.652;2023-02-27T09:37:49;14.7;40.5
76509;SHT31;65340;51.966;5.652;2023-02-27T09:40:24;14.8;40.2
76509;SHT31;65340;51.966;5.652;2023-02-27T09:42:57;14.8;40.5
76509;SHT31;65340;51.966;5.652;2023-02-27T09:45:31;14.8;40.2
76509;SHT31;65340;51.966;5.652;2023-02-27T09:48:14;14.8;40.2
76509;SHT31;65340;51.966;5.652;2023-02-27T09:50:49;14.9;39.8
76509;SHT31;65340;51.966;5.652;2023-02-27T09:53:24;14.9;39.7
76509;SHT31;65340;51.966;5.652;2023-02-27T09:56:04;14.9;39.6
76509;SHT31;65340;51.966;5.652;2023-02-27T09:58:48;14.9;38.1
76509;SHT31;65340;51.966;5.652;2023-02-27T10:01:22;14.9;38.1
76509;SHT31;65340;51.966;5.652;2023-02-27T10:04:01;14.9;38.5
76509;SHT31;65340;51.966;5.652;2023-02-27T10:06:39;14.9;38.6
76509;SHT31;65340;51.966;5.652;2023-02-27T10:09:24;14.9;38.6
76509;SHT31;65340;51.966;5.652;2023-02-27T10:12:45;14.9;38.7
76509;SHT31;65340;51.966;5.652;2023-02-27T10:15:24;14.9;38.2
76509;SHT31;65340;51.966;5.652;2023-02-27T10:17:58;14.9;38.1
76509;SHT31;65340;51.966;5.652;2023-02-27T10:20:31;14.9;37.9
76509;SHT31;65340;51.966;5.652;2023-02-27T10:23:04;14.9;37.9
76509;SHT31;65340;51.966;5.652;2023-02-27T10:25:42;14.9;37.8
76509;SHT31;65340;51.966;5.652;2023-02-27T10:28:15;15.0;37.6
76509;SHT31;65340;51.966;5.652;2023-02-27T10:30:47;15.0;37.4
76509;SHT31;65340;51.966;5.652;2023-02-27T10:33:26;15.0;37.2
76509;SHT31;65340;51.966;5.652;2023-02-27T10:35:58;15.0;37.1
76509;SHT31;65340;51.966;5.652;2023-02-27T10:38:33;15.0;37.2
76509;SHT31;65340;51.966;5.652;2023-02-27T10:41:10;15.0;37.2
76509;SHT31;65340;51.966;5.652;2023-02-27T10:43:41;15.0;36.9
76509;SHT31;65340;51.966;5.652;2023-02-27T10:46:14;15.1;36.6
76509;SHT31;65340;51.966;5.652;2023-02-27T10:48:45;15.1;36.6
76509;SHT31;65340;51.966;5.652;2023-02-27T10:51:23;15.1;36.6
76509;SHT31;65340;51.966;5.652;2023-02-27T10:54:14;15.1;36.6
76509;SHT31;65340;51.966;5.652;2023-02-27T10:56:47;15.1;36.4
76509;SHT31;65340;51.966;5.652;2023-02-27T10:59:22;15.1;36.2
76509;SHT31;65340;51.966;5.652;2023-02-27T11:01:54;15.1;36.2
76509;SHT31;65340;51.966;5.652;2023-02-27T11:04:27;15.2;36.0
76509;SHT31;65340;51.966;5.652;2023-02-27T11:07:00;15.2;35.9
76509;SHT31;65340;51.966;5.652;2023-02-27T11:09:32;15.2;35.8
76509;SHT31;65340;51.966;5.652;2023-02-27T11:12:15;15.2;35.7
76509;SHT31;65340;51.966;5.652;2023-02-27T11:14:51;15.3;35.7
76509;SHT31;65340;51.966;5.652;2023-02-27T11:17:24;15.3;35.4
76509;SHT31;65340;51.966;5.652;2023-02-27T11:19:56;15.4;35.1
76509;SHT31;65340;51.966;5.652;2023-02-27T11:22:28;15.4;35.0
76509;SHT31;65340;51.966;5.652;2023-02-27T11:25:18;15.4;35.0
76509;SHT31;65340;51.966;5.652;2023-02-27T11:27:48;15.4;34.7
76509;SHT31;65340;51.966;5.652;2023-02-27T11:30:24;15.4;34.6
76509;SHT31;65340;51.966;5.652;2023-02-27T11:32:57;15.4;34.5
76509;SHT31;65340;51.966;5.652;2023-02-27T11:35:29;15.3;34.7
76509;SHT31;65340;51.966;5.652;2023-02-27T11:38:02;15.3;34.7
76509;SHT31;65340;51.966;5.652;2023-02-27T11:40:38;15.3;34.7
76509;SHT31;65340;51.966;5.652;2023-02-27T11:43:18;15.4;34.7
76509;SHT31;65340;51.966;5.652;2023-02-27T11:45:55;15.4;34.8
76509;SHT31;65340;51.966;5.652;2023-02-27T11:48:29;15.4;34.8
76509;SHT31;65340;51.966;5.652;2023-02-27T11:51:27;15.5;34.9
76509;SHT31;65340;51.966;5.652;2023-02-27T11:55:02;15.5;34.9
76509;SHT31;65340;51.966;5.652;2023-02-27T11:57:36;15.6;34.5
76509;SHT31;65340;51.966;5.652;2023-02-27T12:00:19;15.6;34.5
76509;SHT31;65340;51.966;5.652;2023-02-27T12:02:55;15.7;34.5
76509;SHT31;65340;51.966;5.652;2023-02-27T12:05:28;15.7;34.4
76509;SHT31;65340;51.966;5.652;2023-02-27T12:08:02;15.8;34.3
76509;SHT31;65340;51.966;5.652;2023-02-27T12:10:44;15.8;34.5
76509;SHT31;65340;51.966;5.652;2023-02-27T12:13:20;15.9;34.4
76509;SHT31;65340;51.966;5.652;2023-02-27T12:15:59;15.9;33.9
76509;SHT31;65340;51.966;5.652;2023-02-27T12:18:39;15.9;33.6
76509;SHT31;65340;51.966;5.652;2023-02-27T12:21:15;15.9;33.8
76509;SHT31;65340;51.966;5.652;2023-02-27T12:23:50;16.0;33.9
76509;SHT31;65340;51.966;5.652;2023-02-27T12:26:26;16.0;33.7
76509;SHT31;65340;51.966;5.652;2023-02-27T12:29:02;16.0;33.5
76509;SHT31;65340;51.966;5.652;2023-02-27T12:31:44;16.0;33.5
76509;SHT31;65340;51.966;5.652;2023-02-27T12:34:21;16.0;33.6
76509;SHT31;65340;51.966;5.652;2023-02-27T12:36:58;16.0;33.2
76509;SHT31;65340;51.966;5.652;2023-02-27T12:39:29;15.9;33.0
76509;SHT31;65340;51.966;5.652;2023-02-27T12:42:16;15.9;33.1
76509;SHT31;65340;51.966;5.652;2023-02-27T12:45:21;15.8;33.0
76509;SHT31;65340;51.966;5.652;2023-02-27T12:48:07;15.8;33.4
76509;SHT31;65340;51.966;5.652;2023-02-27T12:50:51;15.7;33.6
76509;SHT31;65340;51.966;5.652;2023-02-27T12:53:30;15.7;33.5
76509;SHT31;65340;51.966;5.652;2023-02-27T12:56:08;15.7;33.3
76509;SHT31;65340;51.966;5.652;2023-02-27T12:58:49;15.6;33.4
76509;SHT31;65340;51.966;5.652;2023-02-27T13:01:33;15.6;33.3
76509;SHT31;65340;51.966;5.652;2023-02-27T13:04:16;15.5;33.4
76509;SHT31;65340;51.966;5.652;2023-02-27T13:06:50;15.4;33.6
76509;SHT31;65340;51.966;5.652;2023-02-27T13:09:33;15.4;33.5
76509;SHT31;65340;51.966;5.652;2023-02-27T13:12:12;15.3;33.6
76509;SHT31;65340;51.966;5.652;2023-02-27T13:14:50;15.3;33.7
76509;SHT31;65340;51.966;5.652;2023-02-27T13:17:30;15.3;33.8
76509;SHT31;65340;51.966;5.652;2023-02-27T13:20:04;15.2;33.9
76509;SHT31;65340;51.966;5.652;2023-02-27T13:22:44;15.2;34.1
76509;SHT31;65340;51.966;5.652;2023-02-27T13:25:16;15.2;34.5
76509;SHT31;65340;51.966;5.652;2023-02-27T13:27:50;15.2;34.4
76509;SHT31;65340;51.966;5.652;2023-02-27T13:30:26;15.3;34.2
76509;SHT31;65340;51.966;5.652;2023-02-27T13:33:04;15.3;34.0
76509;SHT31;65340;51.966;5.652;2023-02-27T13:35:46;15.2;33.8
76509;SHT31;65340;51.966;5.652;2023-02-27T13:38:33;15.2;33.9
76509;SHT31;65340;51.966;5.652;2023-02-27T13:41:36;15.2;34.1
76509;SHT31;65340;51.966;5.652;2023-02-27T13:44:45;15.1;34.1
76509;SHT31;65340;51.966;5.652;2023-02-27T13:47:40;15.1;34.2
76509;SHT31;65340;51.966;5.652;2023-02-27T13:50:48;15.1;34.6
76509;SHT31;65340;51.966;5.652;2023-02-27T13:53:20;15.2;34.7
76509;SHT31;65340;51.966;5.652;2023-02-27T13:55:56;15.3;34.7
76509;SHT31;65340;51.966;5.652;2023-02-27T13:58:27;15.4;34.7
76509;SHT31;65340;51.966;5.652;2023-02-27T14:00:59;15.4;34.0
76509;SHT31;65340;51.966;5.652;2023-02-27T14:03:32;15.4;33.7
76509;SHT31;65340;51.966;5.652;2023-02-27T14:06:04;15.4;33.9
76509;SHT31;65340;51.966;5.652;2023-02-27T14:08:47;15.5;34.4
76509;SHT31;65340;51.966;5.652;2023-02-27T14:11:23;15.5;34.4
76509;SHT31;65340;51.966;5.652;2023-02-27T14:14:01;15.6;34.4
76509;SHT31;65340;51.966;5.652;2023-02-27T14:16:54;15.7;33.8
76509;SHT31;65340;51.966;5.652;2023-02-27T14:20:11;15.7;33.7
76509;SHT31;65340;51.966;5.652;2023-02-27T14:25:53;15.6;33.6
76509;SHT31;65340;51.966;5.652;2023-02-27T14:28:29;15.5;33.5
76509;SHT31;65340;51.966;5.652;2023-02-27T14:31:01;15.5;34.1
76509;SHT31;65340;51.966;5.652;2023-02-27T14:33:41;15.6;34.2
76509;SHT31;65340;51.966;5.652;2023-02-27T14:36:18;15.6;33.9
76509;SHT31;65340;51.966;5.652;2023-02-27T14:38:49;15.6;33.8
76509;SHT31;65340;51.966;5.652;2023-02-27T14:41:37;15.6;34.2
76509;SHT31;65340;51.966;5.652;2023-02-27T14:44:20;15.6;33.8
76509;SHT31;65340;51.966;5.652;2023-02-27T14:46:52;15.6;33.5
76509;SHT31;65340;51.966;5.652;2023-02-27T14:49:25;15.5;33.5
76509;SHT31;65340;51.966;5.652;2023-02-27T14:51:57;15.5;33.5
76509;SHT31;65340;51.966;5.652;2023-02-27T14:54:31;15.5;33.4
76509;SHT31;65340;51.966;5.652;2023-02-27T14:57:04;15.5;33.6
76509;SHT31;65340;51.966;5.652;2023-02-27T14:59:41;15.6;33.9
76509;SHT31;65340;51.966;5.652;2023-02-27T15:02:17;15.6;34.2
76509;SHT31;65340;51.966;5.652;2023-02-27T15:04:54;15.6;33.4
76509;SHT31;65340;51.966;5.652;2023-02-27T15:07:24;15.6;33.2
76509;SHT31;65340;51.966;5.652;2023-02-27T15:09:57;15.5;33.3
76509;SHT31;65340;51.966;5.652;2023-02-27T15:12:29;15.5;33.4
76509;SHT31;65340;51.966;5.652;2023-02-27T15:15:02;15.5;33.5
76509;SHT31;65340;51.966;5.652;2023-02-27T15:17:39;15.6;33.7
76509;SHT31;65340;51.966;5.652;2023-02-27T15:20:23;15.7;33.5
76509;SHT31;65340;51.966;5.652;2023-02-27T15:22:57;15.7;33.3
76509;SHT31;65340;51.966;5.652;2023-02-27T15:25:31;15.8;33.2
76509;SHT31;65340;51.966;5.652;2023-02-27T15:28:03;15.9;33.2
76509;SHT31;65340;51.966;5.652;2023-02-27T15:30:34;15.9;33.3
76509;SHT31;65340;51.966;5.652;2023-02-27T15:33:03;15.9;33.1
76509;SHT31;65340;51.966;5.652;2023-02-27T15:35:43;16.0;33.1
76509;SHT31;65340;51.966;5.652;2023-02-27T15:38:26;16.0;32.9
76509;SHT31;65340;51.966;5.652;2023-02-27T15:41:01;16.0;32.8
76509;SHT31;65340;51.966;5.652;2023-02-27T15:43:32;16.1;32.7
76509;SHT31;65340;51.966;5.652;2023-02-27T15:46:02;16.1;33.2
76509;SHT31;65340;51.966;5.652;2023-02-27T15:48:32;16.1;32.7
76509;SHT31;65340;51.966;5.652;2023-02-27T15:51:03;16.1;32.7
76509;SHT31;65340;51.966;5.652;2023-02-27T15:53:34;16.2;32.7
76509;SHT31;65340;51.966;5.652;2023-02-27T15:56:07;16.2;32.7
76509;SHT31;65340;51.966;5.652;2023-02-27T15:58:47;16.2;32.7
76509;SHT31;65340;51.966;5.652;2023-02-27T16:01:19;16.2;33.5
76509;SHT31;65340;51.966;5.652;2023-02-27T16:03:51;16.3;32.7
76509;SHT31;65340;51.966;5.652;2023-02-27T16:06:24;16.3;32.5
76509;SHT31;65340;51.966;5.652;2023-02-27T16:08:57;16.2;32.5
76509;SHT31;65340;51.966;5.652;2023-02-27T16:11:31;16.2;32.5
76509;SHT31;65340;51.966;5.652;2023-02-27T16:14:01;16.2;32.6
76509;SHT31;65340;51.966;5.652;2023-02-27T16:16:34;16.2;32.7
76509;SHT31;65340;51.966;5.652;2023-02-27T16:19:23;16.1;32.7
76509;SHT31;65340;51.966;5.652;2023-02-27T16:22:05;16.1;32.6
76509;SHT31;65340;51.966;5.652;2023-02-27T16:24:40;16.1;32.6
76509;SHT31;65340;51.966;5.652;2023-02-27T16:27:17;16.1;32.5
76509;SHT31;65340;51.966;5.652;2023-02-27T16:29:48;16.0;32.6
76509;SHT31;65340;51.966;5.652;2023-02-27T16:32:27;16.0;32.7
76509;SHT31;65340;51.966;5.652;2023-02-27T16:35:03;15.9;32.8
76509;SHT31;65340;51.966;5.652;2023-02-27T16:37:37;15.9;32.7
76509;SHT31;65340;51.966;5.652;2023-02-27T16:40:12;15.8;32.8
76509;SHT31;65340;51.966;5.652;2023-02-27T16:42:44;15.8;32.9
76509;SHT31;65340;51.966;5.652;2023-02-27T16:45:16;15.7;32.9
76509;SHT31;65340;51.966;5.652;2023-02-27T16:47:49;15.7;33.0
76509;SHT31;65340;51.966;5.652;2023-02-27T16:50:21;15.6;33.1
76509;SHT31;65340;51.966;5.652;2023-02-27T16:52:52;15.6;33.3
76509;SHT31;65340;51.966;5.652;2023-02-27T16:55:24;15.6;33.3
76509;SHT31;65340;51.966;5.652;2023-02-27T16:57:54;15.5;33.4
76509;SHT31;65340;51.966;5.652;2023-02-27T17:00:24;15.5;33.5
76509;SHT31;65340;51.966;5.652;2023-02-27T17:02:54;15.5;33.5
76509;SHT31;65340;51.966;5.652;2023-02-27T17:05:23;15.5;33.6
76509;SHT31;65340;51.966;5.652;2023-02-27T17:07:55;15.4;33.5